sensor_id;sensor_type;location;lat;lon;timestamp;P1;durP1;ratioP1;P2;durP2;ratioP2
5904;SDS011;2978;42.012;24.880;2023-01-10T00:02:01;76.13;;;40.23;;
5904;SDS011;2978;42.012;24.880;2023-01-10T00:04:27;79.27;;;39.53;;
5904;SDS011;2978;42.012;24.880;2023-01-10T00:06:53;67.93;;;39.07;;
5904;SDS011;2978;42.012;24.880;2023-01-10T00:09:19;77.50;;;39.20;;
5904;SDS011;2978;42.012;24.880;2023-01-10T00:11:45;67.60;;;37.80;;
5904;SDS011;2978;42.012;24.880;2023-01-10T00:14:28;62.43;;;34.77;;
5904;SDS011;2978;42.012;24.880;2023-01-10T00:16:54;67.17;;;36.63;;
5904;SDS011;2978;42.012;24.880;2023-01-10T00:19:20;63.03;;;35.37;;
5904;SDS011;2978;42.012;24.880;2023-01-10T00:21:46;62.73;;;36.37;;
5904;SDS011;2978;42.012;24.880;2023-01-10T00:24:11;68.20;;;38.77;;
5904;SDS011;2978;42.012;24.880;2023-01-10T00:26:43;62.87;;;35.53;;
5904;SDS011;2978;42.012;24.880;2023-01-10T00:29:10;67.80;;;36.17;;
5904;SDS011;2978;42.012;24.880;2023-01-10T00:31:36;69.27;;;39.97;;
5904;SDS011;2978;42.012;24.880;2023-01-10T00:34:01;73.03;;;37.30;;
5904;SDS011;2978;42.012;24.880;2023-01-10T00:36:27;75.20;;;39.30;;
5904;SDS011;2978;42.012;24.880;2023-01-10T00:38:52;73.27;;;36.37;;
5904;SDS011;2978;42.012;24.880;2023-01-10T00:41:17;72.63;;;37.40;;
5904;SDS011;2978;42.012;24.880;2023-01-10T00:44:01;83.33;;;40.73;;
5904;SDS011;2978;42.012;24.880;2023-01-10T00:46:27;71.93;;;38.73;;
5904;SDS011;2978;42.012;24.880;2023-01-10T00:48:53;62.37;;;35.77;;
5904;SDS011;2978;42.012;24.880;2023-01-10T00:51:19;64.13;;;35.73;;
5904;SDS011;2978;42.012;24.880;2023-01-10T00:53:44;66.57;;;35.80;;
5904;SDS011;2978;42.012;24.880;2023-01-10T00:56:10;74.27;;;40.57;;
5904;SDS011;2978;42.012;24.880;2023-01-10T00:58:35;61.60;;;35.83;;
5904;SDS011;2978;42.012;24.880;2023-01-10T01:01:00;59.97;;;36.47;;
5904;SDS011;2978;42.012;24.880;2023-01-10T01:03:26;68.97;;;35.67;;
5904;SDS011;2978;42.012;24.880;2023-01-10T01:05:51;65.20;;;38.13;;
5904;SDS011;2978;42.012;24.880;2023-01-10T01:08:17;71.53;;;37.30;;
5904;SDS011;2978;42.012;24.880;2023-01-10T01:10:43;64.27;;;36.73;;
5904;SDS011;2978;42.012;24.880;2023-01-10T01:13:13;74.87;;;38.53;;
5904;SDS011;2978;42.012;24.880;2023-01-10T01:15:46;68.23;;;38.40;;
5904;SDS011;2978;42.012;24.880;2023-01-10T01:18:13;76.47;;;40.73;;
5904;SDS011;2978;42.012;24.880;2023-01-10T01:20:43;82.97;;;39.93;;
5904;SDS011;2978;42.012;24.880;2023-01-10T01:23:12;73.27;;;41.07;;
5904;SDS011;2978;42.012;24.880;2023-01-10T01:25:38;75.37;;;41.17;;
5904;SDS011;2978;42.012;24.880;2023-01-10T01:28:04;67.03;;;39.23;;
5904;SDS011;2978;42.012;24.880;2023-01-10T01:30:29;77.30;;;39.73;;
5904;SDS011;2978;42.012;24.880;2023-01-10T01:32:55;81.77;;;41.33;;
5904;SDS011;2978;42.012;24.880;2023-01-10T01:35:21;85.63;;;41.57;;
5904;SDS011;2978;42.012;24.880;2023-01-10T01:37:46;76.73;;;40.40;;
5904;SDS011;2978;42.012;24.880;2023-01-10T01:40:19;81.93;;;39.90;;
5904;SDS011;2978;42.012;24.880;2023-01-10T01:42:45;84.40;;;43.60;;
5904;SDS011;2978;42.012;24.880;2023-01-10T01:45:30;82.23;;;43.93;;
5904;SDS011;2978;42.012;24.880;2023-01-10T01:51:02;85.93;;;45.40;;
5904;SDS011;2978;42.012;24.880;2023-01-10T01:53:59;77.43;;;42.40;;
5904;SDS011;2978;42.012;24.880;2023-01-10T01:56:29;92.87;;;44.73;;
5904;SDS011;2978;42.012;24.880;2023-01-10T01:59:02;82.23;;;41.20;;
5904;SDS011;2978;42.012;24.880;2023-01-10T02:01:36;88.77;;;42.20;;
5904;SDS011;2978;42.012;24.880;2023-01-10T02:04:09;88.70;;;43.90;;
5904;SDS011;2978;42.012;24.880;2023-01-10T02:06:38;88.50;;;43.17;;
5904;SDS011;2978;42.012;24.880;2023-01-10T02:09:21;83.40;;;44.67;;
5904;SDS011;2978;42.012;24.880;2023-01-10T02:11:56;85.13;;;42.87;;
5904;SDS011;2978;42.012;24.880;2023-01-10T02:14:24;82.07;;;42.57;;
5904;SDS011;2978;42.012;24.880;2023-01-10T02:16:50;85.33;;;42.43;;
5904;SDS011;2978;42.012;24.880;2023-01-10T02:19:33;88.90;;;43.87;;
5904;SDS011;2978;42.012;24.880;2023-01-10T02:42:28;81.47;;;40.10;;
5904;SDS011;2978;42.012;24.880;2023-01-10T02:47:37;88.97;;;42.57;;
5904;SDS011;2978;42.012;24.880;2023-01-10T02:52:44;86.77;;;42.40;;
5904;SDS011;2978;42.012;24.880;2023-01-10T02:55:10;86.17;;;42.10;;
5904;SDS011;2978;42.012;24.880;2023-01-10T03:05:54;84.13;;;38.40;;
5904;SDS011;2978;42.012;24.880;2023-01-10T03:08:49;71.60;;;35.00;;
5904;SDS011;2978;42.012;24.880;2023-01-10T03:11:20;56.03;;;27.63;;
5904;SDS011;2978;42.012;24.880;2023-01-10T03:14:03;65.70;;;31.30;;
5904;SDS011;2978;42.012;24.880;2023-01-10T03:16:32;55.77;;;28.50;;
5904;SDS011;2978;42.012;24.880;2023-01-10T03:19:11;55.03;;;27.70;;
5904;SDS011;2978;42.012;24.880;2023-01-10T03:21:39;45.80;;;25.43;;
5904;SDS011;2978;42.012;24.880;2023-01-10T03:24:16;50.90;;;26.27;;
5904;SDS011;2978;42.012;24.880;2023-01-10T03:26:50;58.50;;;28.13;;
5904;SDS011;2978;42.012;24.880;2023-01-10T03:29:28;51.80;;;25.60;;
5904;SDS011;2978;42.012;24.880;2023-01-10T03:32:01;56.03;;;27.60;;
5904;SDS011;2978;42.012;24.880;2023-01-10T03:34:30;47.17;;;25.87;;
5904;SDS011;2978;42.012;24.880;2023-01-10T03:36:58;43.33;;;22.63;;
5904;SDS011;2978;42.012;24.880;2023-01-10T03:39:50;52.73;;;25.87;;
5904;SDS011;2978;42.012;24.880;2023-01-10T03:42:30;45.40;;;22.97;;
5904;SDS011;2978;42.012;24.880;2023-01-10T03:45:23;42.80;;;22.87;;
5904;SDS011;2978;42.012;24.880;2023-01-10T03:47:55;48.27;;;23.67;;
5904;SDS011;2978;42.012;24.880;2023-01-10T03:50:25;40.53;;;23.27;;
5904;SDS011;2978;42.012;24.880;2023-01-10T03:52:52;43.47;;;22.23;;
5904;SDS011;2978;42.012;24.880;2023-01-10T03:55:19;96.43;;;49.20;;
5904;SDS011;2978;42.012;24.880;2023-01-10T03:57:48;48.73;;;28.80;;
5904;SDS011;2978;42.012;24.880;2023-01-10T04:00:13;40.50;;;23.47;;
5904;SDS011;2978;42.012;24.880;2023-01-10T04:02:40;44.43;;;24.40;;
5904;SDS011;2978;42.012;24.880;2023-01-10T04:05:06;39.67;;;23.37;;
5904;SDS011;2978;42.012;24.880;2023-01-10T04:07:32;42.30;;;20.80;;
5904;SDS011;2978;42.012;24.880;2023-01-10T04:09:58;37.97;;;20.17;;
5904;SDS011;2978;42.012;24.880;2023-01-10T04:12:23;52.97;;;32.67;;
5904;SDS011;2978;42.012;24.880;2023-01-10T04:14:49;44.53;;;24.50;;
5904;SDS011;2978;42.012;24.880;2023-01-10T04:17:15;57.83;;;27.57;;
5904;SDS011;2978;42.012;24.880;2023-01-10T04:19:41;45.57;;;25.53;;
5904;SDS011;2978;42.012;24.880;2023-01-10T04:22:08;47.87;;;25.17;;
5904;SDS011;2978;42.012;24.880;2023-01-10T04:24:34;47.93;;;26.23;;
5904;SDS011;2978;42.012;24.880;2023-01-10T04:26:59;51.47;;;26.10;;
5904;SDS011;2978;42.012;24.880;2023-01-10T04:29:25;53.73;;;27.27;;
5904;SDS011;2978;42.012;24.880;2023-01-10T04:31:51;56.47;;;29.63;;
5904;SDS011;2978;42.012;24.880;2023-01-10T04:34:17;61.93;;;30.50;;
5904;SDS011;2978;42.012;24.880;2023-01-10T04:36:44;60.17;;;30.90;;
5904;SDS011;2978;42.012;24.880;2023-01-10T04:39:10;61.77;;;30.90;;
5904;SDS011;2978;42.012;24.880;2023-01-10T04:41:36;63.80;;;31.07;;
5904;SDS011;2978;42.012;24.880;2023-01-10T04:44:02;59.87;;;30.60;;
5904;SDS011;2978;42.012;24.880;2023-01-10T04:46:27;58.27;;;31.40;;
5904;SDS011;2978;42.012;24.880;2023-01-10T04:48:53;62.23;;;31.50;;
5904;SDS011;2978;42.012;24.880;2023-01-10T04:51:18;65.37;;;29.73;;
5904;SDS011;2978;42.012;24.880;2023-01-10T04:53:44;55.93;;;27.93;;
5904;SDS011;2978;42.012;24.880;2023-01-10T04:56:13;55.47;;;25.53;;
5904;SDS011;2978;42.012;24.880;2023-01-10T04:58:41;51.27;;;24.10;;
5904;SDS011;2978;42.012;24.880;2023-01-10T05:01:10;44.47;;;22.00;;
5904;SDS011;2978;42.012;24.880;2023-01-10T05:03:38;89.63;;;45.60;;
5904;SDS011;2978;42.012;24.880;2023-01-10T05:06:04;53.20;;;29.00;;
5904;SDS011;2978;42.012;24.880;2023-01-10T05:08:30;40.53;;;22.17;;
5904;SDS011;2978;42.012;24.880;2023-01-10T05:10:56;35.33;;;21.60;;
5904;SDS011;2978;42.012;24.880;2023-01-10T05:13:21;39.70;;;22.00;;
5904;SDS011;2978;42.012;24.880;2023-01-10T05:15:47;33.43;;;21.30;;
5904;SDS011;2978;42.012;24.880;2023-01-10T05:18:12;46.70;;;23.93;;
5904;SDS011;2978;42.012;24.880;2023-01-10T05:20:38;56.57;;;26.73;;
5904;SDS011;2978;42.012;24.880;2023-01-10T05:23:03;48.33;;;24.10;;
5904;SDS011;2978;42.012;24.880;2023-01-10T05:25:28;41.87;;;23.00;;
5904;SDS011;2978;42.012;24.880;2023-01-10T05:27:54;46.47;;;23.90;;
5904;SDS011;2978;42.012;24.880;2023-01-10T05:30:19;41.13;;;22.73;;
5904;SDS011;2978;42.012;24.880;2023-01-10T05:32:45;56.90;;;22.97;;
5904;SDS011;2978;42.012;24.880;2023-01-10T05:35:11;38.27;;;22.77;;
5904;SDS011;2978;42.012;24.880;2023-01-10T05:37:37;40.50;;;22.97;;
5904;SDS011;2978;42.012;24.880;2023-01-10T05:40:02;50.13;;;23.40;;
5904;SDS011;2978;42.012;24.880;2023-01-10T05:42:28;36.17;;;20.27;;
5904;SDS011;2978;42.012;24.880;2023-01-10T05:44:54;49.23;;;25.60;;
5904;SDS011;2978;42.012;24.880;2023-01-10T05:47:19;51.03;;;25.73;;
5904;SDS011;2978;42.012;24.880;2023-01-10T05:49:45;53.13;;;26.10;;
5904;SDS011;2978;42.012;24.880;2023-01-10T05:52:10;56.10;;;25.23;;
5904;SDS011;2978;42.012;24.880;2023-01-10T05:54:35;56.30;;;28.93;;
5904;SDS011;2978;42.012;24.880;2023-01-10T05:57:01;52.70;;;26.70;;
5904;SDS011;2978;42.012;24.880;2023-01-10T05:59:26;57.90;;;28.50;;
5904;SDS011;2978;42.012;24.880;2023-01-10T06:01:52;63.57;;;27.93;;
5904;SDS011;2978;42.012;24.880;2023-01-10T06:04:17;61.93;;;28.40;;
5904;SDS011;2978;42.012;24.880;2023-01-10T06:06:43;55.00;;;25.83;;
5904;SDS011;2978;42.012;24.880;2023-01-10T06:09:08;56.33;;;25.83;;
5904;SDS011;2978;42.012;24.880;2023-01-10T06:11:34;56.63;;;27.47;;
5904;SDS011;2978;42.012;24.880;2023-01-10T06:14:02;75.10;;;31.90;;
5904;SDS011;2978;42.012;24.880;2023-01-10T06:16:28;68.27;;;30.37;;
5904;SDS011;2978;42.012;24.880;2023-01-10T06:18:54;70.43;;;29.33;;
5904;SDS011;2978;42.012;24.880;2023-01-10T06:21:19;59.47;;;26.83;;
5904;SDS011;2978;42.012;24.880;2023-01-10T06:23:45;42.00;;;24.73;;
5904;SDS011;2978;42.012;24.880;2023-01-10T06:26:11;47.60;;;26.20;;
5904;SDS011;2978;42.012;24.880;2023-01-10T06:28:37;49.40;;;26.87;;
5904;SDS011;2978;42.012;24.880;2023-01-10T06:31:05;51.60;;;27.70;;
5904;SDS011;2978;42.012;24.880;2023-01-10T06:33:31;48.57;;;26.17;;
5904;SDS011;2978;42.012;24.880;2023-01-10T06:35:56;56.90;;;25.97;;
5904;SDS011;2978;42.012;24.880;2023-01-10T06:38:22;56.40;;;27.47;;
5904;SDS011;2978;42.012;24.880;2023-01-10T06:40:47;57.53;;;26.57;;
5904;SDS011;2978;42.012;24.880;2023-01-10T06:43:12;49.97;;;25.70;;
5904;SDS011;2978;42.012;24.880;2023-01-10T06:45:38;49.43;;;25.93;;
5904;SDS011;2978;42.012;24.880;2023-01-10T06:48:03;79.13;;;36.37;;
5904;SDS011;2978;42.012;24.880;2023-01-10T06:50:29;82.47;;;37.93;;
5904;SDS011;2978;42.012;24.880;2023-01-10T06:52:59;74.20;;;38.10;;
5904;SDS011;2978;42.012;24.880;2023-01-10T06:55:26;79.83;;;39.00;;
5904;SDS011;2978;42.012;24.880;2023-01-10T06:57:55;76.00;;;38.70;;
5904;SDS011;2978;42.012;24.880;2023-01-10T07:00:22;90.00;;;40.80;;
5904;SDS011;2978;42.012;24.880;2023-01-10T07:02:49;77.13;;;39.53;;
5904;SDS011;2978;42.012;24.880;2023-01-10T07:05:14;77.30;;;39.50;;
5904;SDS011;2978;42.012;24.880;2023-01-10T07:07:40;100.73;;;46.37;;
5904;SDS011;2978;42.012;24.880;2023-01-10T07:10:05;109.70;;;51.47;;
5904;SDS011;2978;42.012;24.880;2023-01-10T07:12:31;103.93;;;53.00;;
5904;SDS011;2978;42.012;24.880;2023-01-10T07:14:57;117.17;;;54.63;;
5904;SDS011;2978;42.012;24.880;2023-01-10T07:17:22;109.03;;;51.67;;
5904;SDS011;2978;42.012;24.880;2023-01-10T07:19:47;108.63;;;52.57;;
5904;SDS011;2978;42.012;24.880;2023-01-10T07:22:13;119.60;;;53.77;;
5904;SDS011;2978;42.012;24.880;2023-01-10T07:24:38;103.87;;;53.03;;
5904;SDS011;2978;42.012;24.880;2023-01-10T07:27:04;113.60;;;52.90;;
5904;SDS011;2978;42.012;24.880;2023-01-10T07:29:29;115.53;;;56.00;;
5904;SDS011;2978;42.012;24.880;2023-01-10T07:31:54;117.03;;;55.33;;
5904;SDS011;2978;42.012;24.880;2023-01-10T07:34:20;121.40;;;57.13;;
5904;SDS011;2978;42.012;24.880;2023-01-10T07:36:46;127.63;;;56.30;;
5904;SDS011;2978;42.012;24.880;2023-01-10T07:39:11;119.47;;;52.47;;
5904;SDS011;2978;42.012;24.880;2023-01-10T07:41:36;122.80;;;58.40;;
5904;SDS011;2978;42.012;24.880;2023-01-10T07:44:02;134.83;;;58.77;;
5904;SDS011;2978;42.012;24.880;2023-01-10T07:46:27;132.00;;;57.60;;
5904;SDS011;2978;42.012;24.880;2023-01-10T07:48:53;130.70;;;58.10;;
5904;SDS011;2978;42.012;24.880;2023-01-10T07:51:21;160.43;;;70.73;;
5904;SDS011;2978;42.012;24.880;2023-01-10T07:53:46;148.43;;;61.27;;
5904;SDS011;2978;42.012;24.880;2023-01-10T07:56:12;132.63;;;59.27;;
5904;SDS011;2978;42.012;24.880;2023-01-10T07:58:37;142.37;;;59.90;;
5904;SDS011;2978;42.012;24.880;2023-01-10T08:01:03;136.87;;;58.37;;
5904;SDS011;2978;42.012;24.880;2023-01-10T08:03:30;141.03;;;59.27;;
5904;SDS011;2978;42.012;24.880;2023-01-10T08:06:01;157.03;;;62.30;;
5904;SDS011;2978;42.012;24.880;2023-01-10T08:08:28;145.50;;;59.23;;
5904;SDS011;2978;42.012;24.880;2023-01-10T08:10:55;154.07;;;60.80;;
5904;SDS011;2978;42.012;24.880;2023-01-10T08:13:20;141.43;;;61.80;;
5904;SDS011;2978;42.012;24.880;2023-01-10T08:15:46;151.97;;;60.57;;
5904;SDS011;2978;42.012;24.880;2023-01-10T08:18:14;155.23;;;59.00;;
5904;SDS011;2978;42.012;24.880;2023-01-10T08:20:40;135.67;;;58.53;;
5904;SDS011;2978;42.012;24.880;2023-01-10T08:23:05;151.53;;;57.40;;
5904;SDS011;2978;42.012;24.880;2023-01-10T08:25:31;136.97;;;59.07;;
5904;SDS011;2978;42.012;24.880;2023-01-10T08:27:56;149.67;;;62.60;;
5904;SDS011;2978;42.012;24.880;2023-01-10T08:30:22;147.90;;;58.30;;
5904;SDS011;2978;42.012;24.880;2023-01-10T08:32:47;148.77;;;58.97;;
5904;SDS011;2978;42.012;24.880;2023-01-10T08:35:13;138.93;;;58.27;;
5904;SDS011;2978;42.012;24.880;2023-01-10T08:37:38;133.73;;;55.37;;
5904;SDS011;2978;42.012;24.880;2023-01-10T08:40:04;159.77;;;64.07;;
5904;SDS011;2978;42.012;24.880;2023-01-10T08:42:29;140.63;;;60.43;;
5904;SDS011;2978;42.012;24.880;2023-01-10T08:44:55;157.47;;;58.83;;
5904;SDS011;2978;42.012;24.880;2023-01-10T08:47:20;134.93;;;58.00;;
5904;SDS011;2978;42.012;24.880;2023-01-10T08:49:46;129.57;;;57.30;;
5904;SDS011;2978;42.012;24.880;2023-01-10T08:52:13;152.20;;;61.37;;
5904;SDS011;2978;42.012;24.880;2023-01-10T08:54:39;147.33;;;64.50;;
5904;SDS011;2978;42.012;24.880;2023-01-10T08:57:04;145.07;;;63.17;;
5904;SDS011;2978;42.012;24.880;2023-01-10T08:59:30;141.17;;;60.17;;
5904;SDS011;2978;42.012;24.880;2023-01-10T09:01:55;139.67;;;61.77;;
5904;SDS011;2978;42.012;24.880;2023-01-10T09:04:22;151.37;;;66.27;;
5904;SDS011;2978;42.012;24.880;2023-01-10T09:06:48;142.87;;;62.43;;
5904;SDS011;2978;42.012;24.880;2023-01-10T09:09:14;161.27;;;70.43;;
5904;SDS011;2978;42.012;24.880;2023-01-10T09:11:39;132.93;;;61.50;;
5904;SDS011;2978;42.012;24.880;2023-01-10T09:14:04;128.20;;;60.87;;
5904;SDS011;2978;42.012;24.880;2023-01-10T09:16:31;145.30;;;70.13;;
5904;SDS011;2978;42.012;24.880;2023-01-10T09:18:56;133.20;;;58.63;;
5904;SDS011;2978;42.012;24.880;2023-01-10T09:21:22;128.20;;;58.03;;
5904;SDS011;2978;42.012;24.880;2023-01-10T09:23:47;134.13;;;56.07;;
5904;SDS011;2978;42.012;24.880;2023-01-10T09:26:13;137.67;;;58.70;;
5904;SDS011;2978;42.012;24.880;2023-01-10T09:28:38;136.10;;;58.77;;
5904;SDS011;2978;42.012;24.880;2023-01-10T09:31:05;128.70;;;57.50;;
5904;SDS011;2978;42.012;24.880;2023-01-10T09:33:32;114.67;;;53.77;;
5904;SDS011;2978;42.012;24.880;2023-01-10T09:35:58;123.43;;;53.67;;
5904;SDS011;2978;42.012;24.880;2023-01-10T09:38:24;125.13;;;57.50;;
5904;SDS011;2978;42.012;24.880;2023-01-10T09:52:12;113.10;;;52.20;;
5904;SDS011;2978;42.012;24.880;2023-01-10T09:55:05;105.60;;;47.73;;
5904;SDS011;2978;42.012;24.880;2023-01-10T09:57:47;115.93;;;49.97;;
5904;SDS011;2978;42.012;24.880;2023-01-10T10:00:16;118.97;;;51.60;;
5904;SDS011;2978;42.012;24.880;2023-01-10T10:02:46;101.33;;;47.20;;
5904;SDS011;2978;42.012;24.880;2023-01-10T10:05:21;111.63;;;49.67;;
5904;SDS011;2978;42.012;24.880;2023-01-10T10:07:51;102.33;;;49.10;;
5904;SDS011;2978;42.012;24.880;2023-01-10T10:12:59;109.50;;;52.27;;
5904;SDS011;2978;42.012;24.880;2023-01-10T10:15:42;106.77;;;51.97;;
5904;SDS011;2978;42.012;24.880;2023-01-10T10:20:57;101.23;;;50.90;;
5904;SDS011;2978;42.012;24.880;2023-01-10T10:23:30;107.50;;;52.27;;
5904;SDS011;2978;42.012;24.880;2023-01-10T10:26:00;112.67;;;56.30;;
5904;SDS011;2978;42.012;24.880;2023-01-10T10:36:58;136.00;;;71.90;;
5904;SDS011;2978;42.012;24.880;2023-01-10T10:39:34;98.30;;;49.20;;
5904;SDS011;2978;42.012;24.880;2023-01-10T10:42:03;110.17;;;56.20;;
5904;SDS011;2978;42.012;24.880;2023-01-10T10:44:36;99.70;;;51.80;;
5904;SDS011;2978;42.012;24.880;2023-01-10T10:47:21;90.43;;;46.27;;
5904;SDS011;2978;42.012;24.880;2023-01-10T10:49:53;97.17;;;47.43;;
5904;SDS011;2978;42.012;24.880;2023-01-10T10:52:26;109.13;;;54.00;;
5904;SDS011;2978;42.012;24.880;2023-01-10T10:54:56;96.70;;;50.13;;
5904;SDS011;2978;42.012;24.880;2023-01-10T10:57:23;91.33;;;45.53;;
5904;SDS011;2978;42.012;24.880;2023-01-10T10:59:51;75.67;;;42.20;;
5904;SDS011;2978;42.012;24.880;2023-01-10T11:02:20;87.30;;;45.77;;
5904;SDS011;2978;42.012;24.880;2023-01-10T11:04:50;88.53;;;48.70;;
5904;SDS011;2978;42.012;24.880;2023-01-10T11:07:20;95.77;;;55.77;;
5904;SDS011;2978;42.012;24.880;2023-01-10T11:09:46;100.83;;;51.10;;
5904;SDS011;2978;42.012;24.880;2023-01-10T11:12:17;96.93;;;49.87;;
5904;SDS011;2978;42.012;24.880;2023-01-10T11:14:48;108.57;;;59.47;;
5904;SDS011;2978;42.012;24.880;2023-01-10T11:17:23;125.00;;;68.20;;
5904;SDS011;2978;42.012;24.880;2023-01-10T11:20:00;112.40;;;66.73;;
5904;SDS011;2978;42.012;24.880;2023-01-10T11:22:37;115.53;;;67.57;;
5904;SDS011;2978;42.012;24.880;2023-01-10T11:25:18;98.73;;;59.97;;
5904;SDS011;2978;42.012;24.880;2023-01-10T11:27:47;111.63;;;62.93;;
5904;SDS011;2978;42.012;24.880;2023-01-10T11:32:50;94.40;;;53.07;;
5904;SDS011;2978;42.012;24.880;2023-01-10T11:35:35;95.70;;;53.00;;
5904;SDS011;2978;42.012;24.880;2023-01-10T11:41:02;114.97;;;58.53;;
5904;SDS011;2978;42.012;24.880;2023-01-10T11:43:49;119.07;;;64.00;;
5904;SDS011;2978;42.012;24.880;2023-01-10T11:46:15;89.00;;;49.97;;
5904;SDS011;2978;42.012;24.880;2023-01-10T11:51:42;101.97;;;56.43;;
5904;SDS011;2978;42.012;24.880;2023-01-10T11:56:56;88.77;;;43.43;;
5904;SDS011;2978;42.012;24.880;2023-01-10T11:59:25;82.93;;;45.77;;
5904;SDS011;2978;42.012;24.880;2023-01-10T12:01:53;83.97;;;47.73;;
5904;SDS011;2978;42.012;24.880;2023-01-10T12:04:22;84.37;;;47.67;;
5904;SDS011;2978;42.012;24.880;2023-01-10T12:06:50;92.43;;;51.73;;
5904;SDS011;2978;42.012;24.880;2023-01-10T12:14:39;71.93;;;47.07;;
5904;SDS011;2978;42.012;24.880;2023-01-10T12:17:05;75.97;;;43.23;;
5904;SDS011;2978;42.012;24.880;2023-01-10T12:19:30;78.33;;;50.20;;
5904;SDS011;2978;42.012;24.880;2023-01-10T12:21:59;84.87;;;53.37;;
5904;SDS011;2978;42.012;24.880;2023-01-10T12:24:31;76.33;;;48.57;;
5904;SDS011;2978;42.012;24.880;2023-01-10T12:27:02;72.20;;;47.90;;
5904;SDS011;2978;42.012;24.880;2023-01-10T12:29:32;80.30;;;50.37;;
5904;SDS011;2978;42.012;24.880;2023-01-10T12:32:00;54.90;;;37.80;;
5904;SDS011;2978;42.012;24.880;2023-01-10T12:34:41;49.67;;;33.80;;
5904;SDS011;2978;42.012;24.880;2023-01-10T12:43:02;63.57;;;39.13;;
5904;SDS011;2978;42.012;24.880;2023-01-10T12:46:32;62.77;;;42.37;;
5904;SDS011;2978;42.012;24.880;2023-01-10T12:49:04;77.00;;;52.60;;
5904;SDS011;2978;42.012;24.880;2023-01-10T12:51:37;80.93;;;51.87;;
5904;SDS011;2978;42.012;24.880;2023-01-10T12:54:07;75.67;;;49.37;;
5904;SDS011;2978;42.012;24.880;2023-01-10T12:56:39;72.87;;;47.30;;
5904;SDS011;2978;42.012;24.880;2023-01-10T13:01:55;70.13;;;42.90;;
5904;SDS011;2978;42.012;24.880;2023-01-10T13:04:26;65.63;;;41.90;;
5904;SDS011;2978;42.012;24.880;2023-01-10T13:06:54;67.00;;;38.00;;
5904;SDS011;2978;42.012;24.880;2023-01-10T13:09:21;78.03;;;42.70;;
5904;SDS011;2978;42.012;24.880;2023-01-10T13:11:52;62.70;;;40.90;;
5904;SDS011;2978;42.012;24.880;2023-01-10T13:14:27;61.63;;;37.33;;
5904;SDS011;2978;42.012;24.880;2023-01-10T13:17:02;171.30;;;79.90;;
5904;SDS011;2978;42.012;24.880;2023-01-10T13:22:39;72.90;;;41.90;;
5904;SDS011;2978;42.012;24.880;2023-01-10T13:25:17;64.70;;;39.33;;
5904;SDS011;2978;42.012;24.880;2023-01-10T13:27:45;70.47;;;41.77;;
5904;SDS011;2978;42.012;24.880;2023-01-10T13:30:26;73.03;;;44.87;;
5904;SDS011;2978;42.012;24.880;2023-01-10T13:35:44;70.87;;;41.97;;
5904;SDS011;2978;42.012;24.880;2023-01-10T13:41:22;79.83;;;44.93;;
5904;SDS011;2978;42.012;24.880;2023-01-10T13:44:11;75.27;;;45.33;;
5904;SDS011;2978;42.012;24.880;2023-01-10T13:46:41;71.23;;;42.63;;
5904;SDS011;2978;42.012;24.880;2023-01-10T13:51:38;83.30;;;48.87;;
5904;SDS011;2978;42.012;24.880;2023-01-10T13:54:53;74.67;;;43.20;;
5904;SDS011;2978;42.012;24.880;2023-01-10T14:03:44;78.90;;;45.23;;
5904;SDS011;2978;42.012;24.880;2023-01-10T14:08:39;69.20;;;39.83;;
5904;SDS011;2978;42.012;24.880;2023-01-10T14:11:11;71.47;;;41.37;;
5904;SDS011;2978;42.012;24.880;2023-01-10T14:13:37;60.50;;;37.07;;
5904;SDS011;2978;42.012;24.880;2023-01-10T14:19:03;61.80;;;35.13;;
5904;SDS011;2978;42.012;24.880;2023-01-10T14:21:33;64.13;;;35.23;;
5904;SDS011;2978;42.012;24.880;2023-01-10T14:24:05;62.33;;;36.60;;
5904;SDS011;2978;42.012;24.880;2023-01-10T14:26:44;65.17;;;35.97;;
5904;SDS011;2978;42.012;24.880;2023-01-10T14:29:13;67.47;;;39.17;;
5904;SDS011;2978;42.012;24.880;2023-01-10T14:31:42;66.30;;;36.53;;
5904;SDS011;2978;42.012;24.880;2023-01-10T14:34:12;67.47;;;36.50;;
5904;SDS011;2978;42.012;24.880;2023-01-10T14:39:20;59.00;;;36.10;;
5904;SDS011;2978;42.012;24.880;2023-01-10T14:41:48;68.70;;;35.97;;
5904;SDS011;2978;42.012;24.880;2023-01-10T14:46:55;70.07;;;38.80;;
5904;SDS011;2978;42.012;24.880;2023-01-10T14:49:25;69.80;;;41.60;;
5904;SDS011;2978;42.012;24.880;2023-01-10T14:51:53;87.97;;;46.40;;
5904;SDS011;2978;42.012;24.880;2023-01-10T14:54:34;90.20;;;50.37;;
5904;SDS011;2978;42.012;24.880;2023-01-10T14:57:00;73.70;;;41.67;;
5904;SDS011;2978;42.012;24.880;2023-01-10T14:59:27;74.40;;;41.73;;
5904;SDS011;2978;42.012;24.880;2023-01-10T15:01:54;84.80;;;49.93;;
5904;SDS011;2978;42.012;24.880;2023-01-10T15:04:46;100.03;;;62.17;;
5904;SDS011;2978;42.012;24.880;2023-01-10T15:07:21;68.57;;;41.63;;
5904;SDS011;2978;42.012;24.880;2023-01-10T15:09:54;64.33;;;39.07;;
5904;SDS011;2978;42.012;24.880;2023-01-10T15:12:23;77.60;;;42.60;;
5904;SDS011;2978;42.012;24.880;2023-01-10T15:14:59;95.80;;;45.50;;
5904;SDS011;2978;42.012;24.880;2023-01-10T15:17:29;79.40;;;44.53;;
5904;SDS011;2978;42.012;24.880;2023-01-10T15:19:56;81.83;;;44.10;;
5904;SDS011;2978;42.012;24.880;2023-01-10T15:22:29;77.27;;;41.30;;
5904;SDS011;2978;42.012;24.880;2023-01-10T15:24:59;87.77;;;45.27;;
5904;SDS011;2978;42.012;24.880;2023-01-10T15:27:26;83.13;;;45.60;;
5904;SDS011;2978;42.012;24.880;2023-01-10T15:29:53;67.37;;;40.90;;
5904;SDS011;2978;42.012;24.880;2023-01-10T15:34:50;92.20;;;46.63;;
5904;SDS011;2978;42.012;24.880;2023-01-10T15:37:23;151.67;;;67.77;;
5904;SDS011;2978;42.012;24.880;2023-01-10T15:39:52;113.63;;;63.13;;
5904;SDS011;2978;42.012;24.880;2023-01-10T15:42:19;109.73;;;64.23;;
5904;SDS011;2978;42.012;24.880;2023-01-10T15:44:49;84.13;;;48.83;;
5904;SDS011;2978;42.012;24.880;2023-01-10T15:47:36;102.13;;;53.80;;
5904;SDS011;2978;42.012;24.880;2023-01-10T15:50:31;76.10;;;44.70;;
5904;SDS011;2978;42.012;24.880;2023-01-10T15:53:03;97.87;;;57.57;;
5904;SDS011;2978;42.012;24.880;2023-01-10T15:55:35;101.80;;;58.60;;
5904;SDS011;2978;42.012;24.880;2023-01-10T15:58:04;85.27;;;50.27;;
5904;SDS011;2978;42.012;24.880;2023-01-10T16:00:41;81.40;;;47.43;;
5904;SDS011;2978;42.012;24.880;2023-01-10T16:08:56;69.70;;;45.10;;
5904;SDS011;2978;42.012;24.880;2023-01-10T16:14:36;78.13;;;47.77;;
5904;SDS011;2978;42.012;24.880;2023-01-10T16:17:02;78.23;;;47.70;;
5904;SDS011;2978;42.012;24.880;2023-01-10T16:19:28;120.33;;;80.50;;
5904;SDS011;2978;42.012;24.880;2023-01-10T16:21:54;135.00;;;96.37;;
5904;SDS011;2978;42.012;24.880;2023-01-10T16:26:53;66.77;;;42.80;;
5904;SDS011;2978;42.012;24.880;2023-01-10T16:29:21;76.50;;;46.40;;
5904;SDS011;2978;42.012;24.880;2023-01-10T16:31:49;84.70;;;49.30;;
5904;SDS011;2978;42.012;24.880;2023-01-10T16:34:16;88.40;;;54.60;;
5904;SDS011;2978;42.012;24.880;2023-01-10T16:36:41;91.93;;;60.00;;
5904;SDS011;2978;42.012;24.880;2023-01-10T16:39:14;98.67;;;61.77;;
5904;SDS011;2978;42.012;24.880;2023-01-10T16:41:41;88.43;;;53.13;;
5904;SDS011;2978;42.012;24.880;2023-01-10T16:44:26;83.47;;;51.60;;
5904;SDS011;2978;42.012;24.880;2023-01-10T16:46:52;72.73;;;45.47;;
5904;SDS011;2978;42.012;24.880;2023-01-10T16:49:18;67.50;;;42.50;;
5904;SDS011;2978;42.012;24.880;2023-01-10T16:51:44;66.77;;;43.37;;
5904;SDS011;2978;42.012;24.880;2023-01-10T16:54:15;70.10;;;43.60;;